• Join FlightAware (Why Join?)
  • Login
  • US Flag 
03:53PM EDT


 

Airport Tracker/Info


-or-


 

Live Flight TrackerFlight Track Log ✈ GJS3706 ✈ 02-Jul-2013 ✈ KALB - KORD

Flight Track Log - Related Links

Times and Time Zones

All times are in EDT time to prevent confusion due to time zone crossing. See the GJS3706 flight status page for this flight to view local times or setup timezone preferences in your user account.

Time Position Orientation Groundspeed Altitude Reporting Facility
EDT Latitude Longitude Course Direction KTS MPH feet Rate Location/Type
11:38AM 42.7714 -73.8092 276° West 156 180 1,100  Level Boston Center
11:38AM 42.8108 -73.8325 337° Northwest 209 241 2,200 2,160 Climbing Boston Center
11:40AM 42.9072 -73.9425 320° Northwest 289 333 6,600 2,340 Climbing Boston Center
11:41AM 43.0099 -74.0886 279° West  Level FlightAware Approximate
11:41AM 42.9606 -74.0061 319° Northwest 289 333 8,900  Level Boston Center
11:42AM 43.0214 -74.2157 276° West  Level FlightAware Approximate
11:42AM 43.0261 -74.0931 316° Northwest 294 338 11,200  Level Boston Center
11:43AM 43.0305 -74.3432 276° West  Level FlightAware Approximate
11:43AM 43.0978 -74.1831 317° Northwest 329 379 12,900  Level Boston Center
11:44AM 43.1608 -74.2817 311° West 342 394 14,700 1,860 Climbing Boston Center
11:45AM 43.1689 -74.4186 275° West 336 387 16,700 1,740 Climbing Boston Center
11:46AM 43.1814 -74.5386 278° West 344 396 18,200 1,500 Climbing Boston Center
11:47AM 43.1956 -74.6703 278° West 355 409 20,000 1,620 Climbing Boston Center
11:48AM 43.2067 -74.8386 275° West 360 414 21,800 1,500 Climbing Boston Center
11:49AM 43.2056 -74.9839 269° West 373 429 23,100 1,260 Climbing Boston Center
11:50AM 43.2042 -75.1406 269° West 379 436 24,400 1,080 Climbing Boston Center
11:51AM 43.2047 -75.2944 270° West 391 450 25,300 900 Climbing Boston Center
11:52AM 43.2050 -75.4453 270° West 402 463 26,300 900 Climbing Boston Center
11:53AM 43.2047 -75.6022 270° West 407 468 27,200 900 Climbing Boston Center
11:54AM 43.2067 -75.7589 271° West 407 468 28,200 1,020 Climbing Boston Center
11:55AM 43.2522 -75.9039 293° West 407 468 29,300 900 Climbing Boston Center
11:59AM 43.2783 -76.5081 274° West 408 470 32,700 840 Climbing Cleveland Center
12:00PM 43.2711 -76.6597 266° West 413 475 33,700 960 Climbing Cleveland Center
12:01PM 43.2700 -76.8108 269° West 408 470 34,700 960 Climbing Cleveland Center
12:02PM 43.2644 -76.9653 267° West 408 470 35,700 960 Climbing Cleveland Center
12:03PM 43.2564 -77.1081 266° West 398 458 36,700 960 Climbing Cleveland Center
12:04PM 43.2500 -77.2511 267° West 392 451 37,700 600 Climbing Cleveland Center
12:05PM 43.2478 -77.3939 269° West 385 443 38,000 120 Climbing Cleveland Center
12:06PM 43.2414 -77.5367 267° West 385 443 38,000  Level Cleveland Center
12:07PM 43.2344 -77.6767 266° West 385 443 38,000  Level Cleveland Center
12:08PM 43.2297 -77.8250 268° West 385 443 38,000  Level Cleveland Center
12:09PM 43.2247 -77.9678 267° West 385 443 38,000  Level Cleveland Center
12:10PM 43.2153 -78.1078 265° West 385 443 38,000  Level Cleveland Center
12:11PM 43.2100 -78.2503 267° West 385 443 38,000  Level Cleveland Center
12:12PM 43.2044 -78.3958 267° West 385 443 38,000  Level Cleveland Center
12:13PM 43.1967 -78.5358 266° West 385 443 38,000  Level Cleveland Center
12:14PM 43.1906 -78.6783 267° West 385 443 38,000  Level Cleveland Center
12:15PM 43.1825 -78.8153 265° West 379 436 38,000  Level Cleveland Center
12:16PM 43.1761 -78.9547 266° West 379 436 38,000  Level Cleveland Center
12:17PM 43.1675 -79.0917 265° West 369 425 38,000  Level Cleveland Center
12:18PM 43.1500 -79.2000 258° West 360 414 38,000  Level Toronto Center
12:19PM 43.1500 -79.3333 270° West 360 414 38,000  Level Toronto Center
12:20PM 43.1333 -79.4667 260° West 370 426 38,000  Level Toronto Center
12:21PM 43.1333 -79.6167 270° West 360 414 38,000  Level Toronto Center
12:22PM 43.1167 -79.7500 260° West 360 414 38,000  Level Toronto Center
12:23PM 43.1167 -79.9000 270° West 360 414 38,000  Level Toronto Center
12:24PM 43.1000 -80.0167 259° West 360 414 38,000  Level Toronto Center
12:25PM 43.1167 -80.1667 279° West 380 437 38,000  Level Toronto Center
12:26PM 43.2167 -80.3000 316° Northwest 430 495 38,000  Level Toronto Center
12:27PM 43.3167 -80.3833 329° Northwest 450 518 38,000  Level Toronto Center
12:28PM 43.3833 -80.5333 301° West 430 495 38,000  Level Toronto Center
12:29PM 43.3833 -80.6667 270° West 390 449 38,000  Level Toronto Center
12:30PM 43.3667 -80.8000 260° West 370 426 38,000  Level Toronto Center
12:31PM 43.3333 -80.9667 255° West 370 426 38,000  Level Toronto Center
12:32PM 43.3167 -81.1000 260° West 380 437 38,000  Level Toronto Center
12:33PM 43.3000 -81.2333 260° West 380 437 38,000  Level Toronto Center
12:34PM 43.2833 -81.3667 260° West 380 437 38,000  Level Toronto Center
12:35PM 43.2667 -81.5167 261° West 380 437 38,000  Level Toronto Center
12:36PM 43.2500 -81.6667 261° West 380 437 38,000  Level Toronto Center
12:37PM 43.2333 -81.8000 260° West 380 437 38,000  Level Toronto Center
12:38PM 43.2000 -81.9500 253° West 380 437 38,000  Level Toronto Center
12:39PM 43.1833 -82.1000 261° West 380 437 38,000  Level Toronto Center
12:40PM 43.1667 -82.2333 260° West 380 437 38,000  Level Toronto Center
12:41PM 43.1500 -82.3833 261° West 380 437 38,000  Level Toronto Center
12:42PM 43.1333 -82.5333 261° West 380 437 38,000  Level Toronto Center
12:43PM 43.1292 -82.6597 267° West 389 448 38,000 -180 Level Cleveland Center
12:44PM 43.1078 -82.8042 259° West 389 448 37,700 -660 Descending Cleveland Center
12:45PM 43.0861 -82.9456 258° West 389 448 36,700 -1,020 Descending Cleveland Center
12:46PM 43.0644 -83.0897 258° West 389 448 35,700 -1,020 Descending Cleveland Center
12:47PM 43.0425 -83.2336 258° West 389 448 34,700 -1,020 Descending Cleveland Center
12:48PM 43.0200 -83.3861 259° West 394 453 33,700 -1,020 Descending Cleveland Center
12:49PM 42.9975 -83.5439 259° West 407 468 32,700 -900 Descending Cleveland Center
12:50PM 42.9744 -83.7019 259° West 420 483 32,000 -360 Descending Cleveland Center
12:51PM 42.9533 -83.8597 260° West 425 489 32,000  Level Cleveland Center
12:52PM 42.9383 -84.0206 263° West 425 489 32,000  Level Cleveland Center
12:54PM 42.9153 -84.2789 263° West 432 497 32,000  Level Chicago Center
12:55PM 42.8997 -84.4406 263° West 432 497 32,000  Level Chicago Center
12:56PM 42.8833 -84.6047 262° West 437 503 32,000  Level Chicago Center
12:57PM 42.8664 -84.7675 262° West 436 502 32,000  Level Chicago Center
12:58PM 42.8481 -84.9306 261° West 436 502 32,000  Level Chicago Center
12:59PM 42.8275 -85.1275 262° West 437 503 32,000 -360 Level Chicago Center
01:00PM 42.8097 -85.2900 262° West 435 501 31,300 -960 Descending Chicago Center
01:01PM 42.7922 -85.4511 262° West 433 498 30,100 -1,140 Descending Chicago Center
01:02PM 42.7667 -85.6097 258° West 429 494 29,000 -1,020 Descending Chicago Center
01:03PM 42.7369 -85.7719 256° West 434 499 28,000 -840 Descending Chicago Center
01:04PM 42.7075 -85.9311 256° West 433 498 27,300 -1,320 Descending Chicago Center
01:05PM 42.6786 -86.0903 256° West 430 495 25,300 -2,040 Descending Chicago Center
01:06PM 42.6489 -86.2525 256° West 438 504 23,100 -2,100 Descending Chicago Center
01:07PM 42.6192 -86.4083 256° West 428 493 21,000 -2,220 Descending Chicago Center
01:08PM 42.5861 -86.5850 256° West 405 466 18,600 -2,100 Descending Chicago Center
01:09PM 42.5614 -86.7264 257° West 394 453 16,700 -1,920 Descending Chicago Center
01:10PM 42.5236 -86.8661 250° West 389 448 14,700 -1,920 Descending Chicago Center
01:11PM 42.4878 -86.9978 250° West 375 432 12,800 -1,740 Descending Chicago Center
01:12PM 42.4517 -87.1256 249° West 363 418 11,200 -1,380 Descending Chicago Center
01:13PM 42.4161 -87.2508 249° West 359 413 10,000 -660 Descending Chicago Center
01:14PM 42.3781 -87.3953 250° West 356 410 9,900 -60 Descending Chicago Center
01:15PM 42.3422 -87.5181 248° West 355 409 9,900 -60 Level Chicago Center
01:16PM 42.2728 -87.6028 222° Southwest 338 389 9,800 -720 Descending Chicago Center
01:17PM 42.2094 -87.6706 218° Southwest 297 342 8,500 -1,380 Descending Chicago Center
01:18PM 42.1369 -87.7483 219° Southwest 278 320 7,000 -780 Descending Chicago Center
01:19PM 42.0928 -87.8325 235° Southwest 290 334 7,000 60 Level Chicago Center
01:20PM 42.1000 -87.9000 278° West 292 336 7,100 60 Climbing Chicago TRACON
01:21PM 42.0833 -87.9833 255° West 291 335 7,100 -120 Level Chicago TRACON
01:22PM 42.0667 -88.0833 257° West 265 305 6,900 -480 Descending Chicago TRACON
01:23PM 42.0556 -88.1333 253° West 266 306 6,300 -1,080 Descending Chicago Center
01:24PM 42.0514 -88.2344 267° West 241 277 5,100 -1,080 Descending Chicago Center
01:25PM 42.0214 -88.2772 227° Southwest 209 241 4,100 -540 Descending Chicago Center
01:26PM 41.9831 -88.2442 147° Southeast 194 223 4,000 -60 Descending Chicago Center
01:27PM 41.9653 -88.1839 112° Southeast 184 212 4,000  Level Chicago Center